sensor_id;sensor_type;location;lat;lon;timestamp;P1;durP1;ratioP1;P2;durP2;ratioP2
52057;SDS011;38063;53.210;6.504;2023-04-25T00:00:16;17.88;;;3.75;;
52057;SDS011;38063;53.210;6.504;2023-04-25T00:02:42;27.75;;;4.72;;
52057;SDS011;38063;53.210;6.504;2023-04-25T00:05:08;19.65;;;3.78;;
52057;SDS011;38063;53.210;6.504;2023-04-25T00:07:34;21.85;;;4.40;;
52057;SDS011;38063;53.210;6.504;2023-04-25T00:09:59;16.10;;;3.72;;
52057;SDS011;38063;53.210;6.504;2023-04-25T00:12:25;16.63;;;3.92;;
52057;SDS011;38063;53.210;6.504;2023-04-25T00:14:53;17.23;;;3.53;;
52057;SDS011;38063;53.210;6.504;2023-04-25T00:17:22;19.42;;;4.80;;
52057;SDS011;38063;53.210;6.504;2023-04-25T00:19:49;16.83;;;3.83;;
52057;SDS011;38063;53.210;6.504;2023-04-25T00:22:15;24.52;;;4.03;;
52057;SDS011;38063;53.210;6.504;2023-04-25T00:24:42;22.63;;;4.30;;
52057;SDS011;38063;53.210;6.504;2023-04-25T00:27:08;24.38;;;3.88;;
52057;SDS011;38063;53.210;6.504;2023-04-25T00:29:33;19.58;;;3.75;;
52057;SDS011;38063;53.210;6.504;2023-04-25T00:31:59;20.85;;;3.58;;
52057;SDS011;38063;53.210;6.504;2023-04-25T00:34:26;20.35;;;3.22;;
52057;SDS011;38063;53.210;6.504;2023-04-25T00:36:51;19.52;;;3.40;;
52057;SDS011;38063;53.210;6.504;2023-04-25T00:39:17;13.13;;;3.40;;
52057;SDS011;38063;53.210;6.504;2023-04-25T00:41:43;21.00;;;3.60;;
52057;SDS011;38063;53.210;6.504;2023-04-25T00:44:10;25.42;;;3.42;;
52057;SDS011;38063;53.210;6.504;2023-04-25T00:46:37;21.98;;;3.42;;
52057;SDS011;38063;53.210;6.504;2023-04-25T00:49:04;16.85;;;2.72;;
52057;SDS011;38063;53.210;6.504;2023-04-25T00:51:30;13.90;;;3.67;;
52057;SDS011;38063;53.210;6.504;2023-04-25T00:53:57;14.23;;;3.10;;
52057;SDS011;38063;53.210;6.504;2023-04-25T00:56:23;16.60;;;2.90;;
52057;SDS011;38063;53.210;6.504;2023-04-25T00:58:50;16.05;;;4.00;;
52057;SDS011;38063;53.210;6.504;2023-04-25T01:01:20;14.23;;;2.95;;
52057;SDS011;38063;53.210;6.504;2023-04-25T01:03:46;14.07;;;3.00;;
52057;SDS011;38063;53.210;6.504;2023-04-25T01:06:17;13.18;;;2.33;;
52057;SDS011;38063;53.210;6.504;2023-04-25T01:08:42;19.52;;;2.40;;
52057;SDS011;38063;53.210;6.504;2023-04-25T01:11:08;9.75;;;2.10;;
52057;SDS011;38063;53.210;6.504;2023-04-25T01:13:34;8.18;;;2.15;;
52057;SDS011;38063;53.210;6.504;2023-04-25T01:16:00;15.40;;;2.63;;
52057;SDS011;38063;53.210;6.504;2023-04-25T01:18:26;13.27;;;2.10;;
52057;SDS011;38063;53.210;6.504;2023-04-25T01:20:52;14.93;;;2.03;;
52057;SDS011;38063;53.210;6.504;2023-04-25T01:23:19;11.25;;;2.67;;
52057;SDS011;38063;53.210;6.504;2023-04-25T01:25:46;14.45;;;2.50;;
52057;SDS011;38063;53.210;6.504;2023-04-25T01:28:13;13.10;;;2.90;;
52057;SDS011;38063;53.210;6.504;2023-04-25T01:30:39;13.27;;;2.10;;
52057;SDS011;38063;53.210;6.504;2023-04-25T01:33:05;15.50;;;2.28;;
52057;SDS011;38063;53.210;6.504;2023-04-25T01:35:33;14.05;;;2.47;;
52057;SDS011;38063;53.210;6.504;2023-04-25T01:37:59;14.82;;;2.38;;
52057;SDS011;38063;53.210;6.504;2023-04-25T01:40:25;14.77;;;1.80;;
52057;SDS011;38063;53.210;6.504;2023-04-25T01:42:52;16.63;;;2.92;;
52057;SDS011;38063;53.210;6.504;2023-04-25T01:45:18;11.25;;;2.53;;
52057;SDS011;38063;53.210;6.504;2023-04-25T01:47:44;14.57;;;2.80;;
52057;SDS011;38063;53.210;6.504;2023-04-25T01:50:13;10.32;;;2.38;;
52057;SDS011;38063;53.210;6.504;2023-04-25T01:52:40;14.82;;;3.03;;
52057;SDS011;38063;53.210;6.504;2023-04-25T01:55:06;14.60;;;2.13;;
52057;SDS011;38063;53.210;6.504;2023-04-25T01:57:31;15.23;;;3.50;;
52057;SDS011;38063;53.210;6.504;2023-04-25T01:59:58;12.73;;;2.95;;
52057;SDS011;38063;53.210;6.504;2023-04-25T02:02:25;19.85;;;3.10;;
52057;SDS011;38063;53.210;6.504;2023-04-25T02:04:51;20.02;;;2.75;;
52057;SDS011;38063;53.210;6.504;2023-04-25T02:07:17;18.08;;;2.53;;
52057;SDS011;38063;53.210;6.504;2023-04-25T02:09:43;12.60;;;2.33;;
52057;SDS011;38063;53.210;6.504;2023-04-25T02:12:09;20.92;;;2.92;;
52057;SDS011;38063;53.210;6.504;2023-04-25T02:14:35;19.23;;;2.85;;
52057;SDS011;38063;53.210;6.504;2023-04-25T02:17:01;16.77;;;3.13;;
52057;SDS011;38063;53.210;6.504;2023-04-25T02:19:27;13.20;;;2.45;;
52057;SDS011;38063;53.210;6.504;2023-04-25T02:21:52;23.77;;;2.60;;
52057;SDS011;38063;53.210;6.504;2023-04-25T02:24:18;13.65;;;2.50;;
52057;SDS011;38063;53.210;6.504;2023-04-25T02:26:44;14.55;;;2.30;;
52057;SDS011;38063;53.210;6.504;2023-04-25T02:29:11;12.80;;;2.38;;
52057;SDS011;38063;53.210;6.504;2023-04-25T02:31:37;18.20;;;2.78;;
52057;SDS011;38063;53.210;6.504;2023-04-25T02:34:03;17.50;;;2.20;;
52057;SDS011;38063;53.210;6.504;2023-04-25T02:36:29;14.05;;;2.45;;
52057;SDS011;38063;53.210;6.504;2023-04-25T02:38:59;9.98;;;2.75;;
52057;SDS011;38063;53.210;6.504;2023-04-25T02:41:25;18.58;;;2.63;;
52057;SDS011;38063;53.210;6.504;2023-04-25T02:43:51;11.02;;;1.92;;
52057;SDS011;38063;53.210;6.504;2023-04-25T02:46:16;17.85;;;3.28;;
52057;SDS011;38063;53.210;6.504;2023-04-25T02:48:42;12.63;;;2.60;;
52057;SDS011;38063;53.210;6.504;2023-04-25T02:51:08;17.30;;;2.40;;
52057;SDS011;38063;53.210;6.504;2023-04-25T02:53:34;11.13;;;2.28;;
52057;SDS011;38063;53.210;6.504;2023-04-25T02:56:00;17.38;;;2.58;;
52057;SDS011;38063;53.210;6.504;2023-04-25T02:58:25;13.48;;;2.40;;
52057;SDS011;38063;53.210;6.504;2023-04-25T03:00:51;10.77;;;2.50;;
52057;SDS011;38063;53.210;6.504;2023-04-25T03:03:17;11.00;;;1.90;;
52057;SDS011;38063;53.210;6.504;2023-04-25T03:05:43;13.32;;;2.05;;
52057;SDS011;38063;53.210;6.504;2023-04-25T03:08:09;12.48;;;2.25;;
52057;SDS011;38063;53.210;6.504;2023-04-25T03:10:35;9.02;;;1.85;;
52057;SDS011;38063;53.210;6.504;2023-04-25T03:13:00;17.30;;;2.53;;
52057;SDS011;38063;53.210;6.504;2023-04-25T03:15:26;11.85;;;1.75;;
52057;SDS011;38063;53.210;6.504;2023-04-25T03:17:52;15.57;;;2.40;;
52057;SDS011;38063;53.210;6.504;2023-04-25T03:20:17;12.55;;;2.53;;
52057;SDS011;38063;53.210;6.504;2023-04-25T03:22:43;11.20;;;2.47;;
52057;SDS011;38063;53.210;6.504;2023-04-25T03:25:09;11.57;;;2.20;;
52057;SDS011;38063;53.210;6.504;2023-04-25T03:27:35;9.02;;;2.28;;
52057;SDS011;38063;53.210;6.504;2023-04-25T03:30:01;6.72;;;1.85;;
52057;SDS011;38063;53.210;6.504;2023-04-25T03:32:26;7.95;;;2.47;;
52057;SDS011;38063;53.210;6.504;2023-04-25T03:34:52;11.02;;;1.98;;
52057;SDS011;38063;53.210;6.504;2023-04-25T03:37:17;12.43;;;2.33;;
52057;SDS011;38063;53.210;6.504;2023-04-25T03:39:43;11.23;;;2.67;;
52057;SDS011;38063;53.210;6.504;2023-04-25T03:42:09;13.02;;;2.35;;
52057;SDS011;38063;53.210;6.504;2023-04-25T03:44:34;14.90;;;2.15;;
52057;SDS011;38063;53.210;6.504;2023-04-25T03:47:00;13.00;;;2.10;;
52057;SDS011;38063;53.210;6.504;2023-04-25T03:49:26;12.32;;;2.22;;
52057;SDS011;38063;53.210;6.504;2023-04-25T03:51:51;6.93;;;2.00;;
52057;SDS011;38063;53.210;6.504;2023-04-25T03:54:17;13.48;;;2.53;;
52057;SDS011;38063;53.210;6.504;2023-04-25T03:56:43;9.68;;;1.98;;
52057;SDS011;38063;53.210;6.504;2023-04-25T03:59:08;14.55;;;2.40;;
52057;SDS011;38063;53.210;6.504;2023-04-25T04:01:34;8.02;;;1.85;;
52057;SDS011;38063;53.210;6.504;2023-04-25T04:04:00;12.18;;;2.22;;
52057;SDS011;38063;53.210;6.504;2023-04-25T04:06:26;12.30;;;2.65;;
52057;SDS011;38063;53.210;6.504;2023-04-25T04:08:51;13.80;;;2.22;;
52057;SDS011;38063;53.210;6.504;2023-04-25T04:11:17;11.10;;;2.22;;
52057;SDS011;38063;53.210;6.504;2023-04-25T04:13:43;17.52;;;2.15;;
52057;SDS011;38063;53.210;6.504;2023-04-25T04:16:08;15.77;;;2.45;;
52057;SDS011;38063;53.210;6.504;2023-04-25T04:18:34;11.65;;;2.38;;
52057;SDS011;38063;53.210;6.504;2023-04-25T04:21:00;6.78;;;2.08;;
52057;SDS011;38063;53.210;6.504;2023-04-25T04:23:27;9.95;;;2.30;;
52057;SDS011;38063;53.210;6.504;2023-04-25T04:25:53;15.45;;;2.13;;
52057;SDS011;38063;53.210;6.504;2023-04-25T04:28:20;12.68;;;2.25;;
52057;SDS011;38063;53.210;6.504;2023-04-25T04:30:46;16.85;;;2.28;;
52057;SDS011;38063;53.210;6.504;2023-04-25T04:33:12;16.27;;;2.42;;
52057;SDS011;38063;53.210;6.504;2023-04-25T04:35:40;13.27;;;2.15;;
52057;SDS011;38063;53.210;6.504;2023-04-25T04:38:06;8.65;;;2.20;;
52057;SDS011;38063;53.210;6.504;2023-04-25T04:40:32;9.75;;;1.80;;
52057;SDS011;38063;53.210;6.504;2023-04-25T04:42:58;10.90;;;2.40;;
52057;SDS011;38063;53.210;6.504;2023-04-25T04:45:23;15.32;;;2.40;;
52057;SDS011;38063;53.210;6.504;2023-04-25T04:47:49;8.60;;;1.63;;
52057;SDS011;38063;53.210;6.504;2023-04-25T04:50:15;14.02;;;2.30;;
52057;SDS011;38063;53.210;6.504;2023-04-25T04:52:41;14.88;;;2.60;;
52057;SDS011;38063;53.210;6.504;2023-04-25T04:55:07;9.45;;;2.72;;
52057;SDS011;38063;53.210;6.504;2023-04-25T04:57:34;8.93;;;1.75;;
52057;SDS011;38063;53.210;6.504;2023-04-25T05:00:00;10.25;;;2.25;;
52057;SDS011;38063;53.210;6.504;2023-04-25T05:02:26;11.88;;;2.30;;
52057;SDS011;38063;53.210;6.504;2023-04-25T05:04:52;19.33;;;2.53;;
52057;SDS011;38063;53.210;6.504;2023-04-25T05:07:18;9.65;;;2.38;;
52057;SDS011;38063;53.210;6.504;2023-04-25T05:09:44;8.77;;;2.03;;
52057;SDS011;38063;53.210;6.504;2023-04-25T05:12:09;6.35;;;1.48;;
52057;SDS011;38063;53.210;6.504;2023-04-25T05:14:35;10.80;;;1.90;;
52057;SDS011;38063;53.210;6.504;2023-04-25T05:17:01;9.80;;;1.70;;
52057;SDS011;38063;53.210;6.504;2023-04-25T05:19:29;13.55;;;2.30;;
52057;SDS011;38063;53.210;6.504;2023-04-25T05:21:55;9.77;;;2.03;;
52057;SDS011;38063;53.210;6.504;2023-04-25T05:24:21;11.20;;;1.80;;
52057;SDS011;38063;53.210;6.504;2023-04-25T05:26:46;9.40;;;1.60;;
52057;SDS011;38063;53.210;6.504;2023-04-25T05:29:12;8.00;;;2.38;;
52057;SDS011;38063;53.210;6.504;2023-04-25T05:31:38;9.98;;;1.58;;
52057;SDS011;38063;53.210;6.504;2023-04-25T05:34:03;9.75;;;2.17;;
52057;SDS011;38063;53.210;6.504;2023-04-25T05:36:29;9.30;;;1.50;;
52057;SDS011;38063;53.210;6.504;2023-04-25T05:38:56;9.98;;;2.03;;
52057;SDS011;38063;53.210;6.504;2023-04-25T05:41:21;12.90;;;2.20;;
52057;SDS011;38063;53.210;6.504;2023-04-25T05:43:47;6.18;;;2.42;;
52057;SDS011;38063;53.210;6.504;2023-04-25T05:46:14;9.10;;;2.58;;
52057;SDS011;38063;53.210;6.504;2023-04-25T05:48:42;8.23;;;1.90;;
52057;SDS011;38063;53.210;6.504;2023-04-25T05:51:08;15.50;;;2.40;;
52057;SDS011;38063;53.210;6.504;2023-04-25T05:53:34;12.82;;;2.38;;
52057;SDS011;38063;53.210;6.504;2023-04-25T05:56:00;10.20;;;3.47;;
52057;SDS011;38063;53.210;6.504;2023-04-25T05:58:26;10.45;;;2.40;;
52057;SDS011;38063;53.210;6.504;2023-04-25T06:00:52;14.45;;;2.83;;
52057;SDS011;38063;53.210;6.504;2023-04-25T06:03:17;7.80;;;1.83;;
52057;SDS011;38063;53.210;6.504;2023-04-25T06:05:43;15.18;;;2.10;;
52057;SDS011;38063;53.210;6.504;2023-04-25T06:08:09;10.70;;;2.00;;
52057;SDS011;38063;53.210;6.504;2023-04-25T06:10:36;8.50;;;1.90;;
52057;SDS011;38063;53.210;6.504;2023-04-25T06:13:02;9.35;;;1.92;;
52057;SDS011;38063;53.210;6.504;2023-04-25T06:15:29;9.93;;;1.90;;
52057;SDS011;38063;53.210;6.504;2023-04-25T06:17:55;15.32;;;2.20;;
52057;SDS011;38063;53.210;6.504;2023-04-25T06:20:20;8.00;;;2.33;;
52057;SDS011;38063;53.210;6.504;2023-04-25T06:22:49;9.43;;;2.08;;
52057;SDS011;38063;53.210;6.504;2023-04-25T06:25:15;9.13;;;1.75;;
52057;SDS011;38063;53.210;6.504;2023-04-25T06:27:41;7.75;;;1.80;;
52057;SDS011;38063;53.210;6.504;2023-04-25T06:30:07;14.77;;;2.20;;
52057;SDS011;38063;53.210;6.504;2023-04-25T06:32:33;13.10;;;2.20;;
52057;SDS011;38063;53.210;6.504;2023-04-25T06:34:59;10.25;;;1.77;;
52057;SDS011;38063;53.210;6.504;2023-04-25T06:37:25;12.55;;;2.35;;
52057;SDS011;38063;53.210;6.504;2023-04-25T06:39:51;11.65;;;2.08;;
52057;SDS011;38063;53.210;6.504;2023-04-25T06:42:16;9.55;;;2.33;;
52057;SDS011;38063;53.210;6.504;2023-04-25T06:44:42;8.32;;;1.80;;
52057;SDS011;38063;53.210;6.504;2023-04-25T06:47:08;10.95;;;1.75;;
52057;SDS011;38063;53.210;6.504;2023-04-25T06:49:33;14.75;;;2.22;;
52057;SDS011;38063;53.210;6.504;2023-04-25T06:51:59;15.55;;;2.15;;
52057;SDS011;38063;53.210;6.504;2023-04-25T06:54:25;9.98;;;1.75;;
52057;SDS011;38063;53.210;6.504;2023-04-25T06:56:52;9.32;;;1.70;;
52057;SDS011;38063;53.210;6.504;2023-04-25T06:59:18;7.95;;;1.65;;
52057;SDS011;38063;53.210;6.504;2023-04-25T07:01:44;8.10;;;1.25;;
52057;SDS011;38063;53.210;6.504;2023-04-25T07:04:10;9.82;;;2.10;;
52057;SDS011;38063;53.210;6.504;2023-04-25T07:06:36;10.15;;;1.95;;
52057;SDS011;38063;53.210;6.504;2023-04-25T07:09:07;8.98;;;1.65;;
52057;SDS011;38063;53.210;6.504;2023-04-25T07:11:33;7.07;;;1.58;;
52057;SDS011;38063;53.210;6.504;2023-04-25T07:13:59;6.53;;;1.63;;
52057;SDS011;38063;53.210;6.504;2023-04-25T07:16:25;10.07;;;1.45;;
52057;SDS011;38063;53.210;6.504;2023-04-25T07:18:51;7.25;;;1.40;;
52057;SDS011;38063;53.210;6.504;2023-04-25T07:21:16;8.52;;;1.42;;
52057;SDS011;38063;53.210;6.504;2023-04-25T07:23:42;9.25;;;1.63;;
52057;SDS011;38063;53.210;6.504;2023-04-25T07:26:08;6.15;;;1.40;;
52057;SDS011;38063;53.210;6.504;2023-04-25T07:28:33;8.18;;;1.27;;
52057;SDS011;38063;53.210;6.504;2023-04-25T07:30:59;8.32;;;1.80;;
52057;SDS011;38063;53.210;6.504;2023-04-25T07:33:25;7.00;;;1.30;;
52057;SDS011;38063;53.210;6.504;2023-04-25T07:35:51;9.95;;;1.48;;
52057;SDS011;38063;53.210;6.504;2023-04-25T07:38:17;5.00;;;1.42;;
52057;SDS011;38063;53.210;6.504;2023-04-25T07:40:42;8.93;;;1.30;;
52057;SDS011;38063;53.210;6.504;2023-04-25T07:43:08;4.32;;;1.10;;
52057;SDS011;38063;53.210;6.504;2023-04-25T07:45:34;3.72;;;0.65;;
52057;SDS011;38063;53.210;6.504;2023-04-25T07:48:00;4.93;;;0.70;;
52057;SDS011;38063;53.210;6.504;2023-04-25T07:50:25;3.33;;;0.68;;
52057;SDS011;38063;53.210;6.504;2023-04-25T07:52:51;7.97;;;0.90;;
52057;SDS011;38063;53.210;6.504;2023-04-25T07:55:16;4.57;;;0.80;;
52057;SDS011;38063;53.210;6.504;2023-04-25T07:57:42;3.20;;;0.90;;
52057;SDS011;38063;53.210;6.504;2023-04-25T08:00:08;5.22;;;0.95;;
52057;SDS011;38063;53.210;6.504;2023-04-25T08:02:34;7.25;;;0.90;;
52057;SDS011;38063;53.210;6.504;2023-04-25T08:05:01;5.53;;;1.25;;
52057;SDS011;38063;53.210;6.504;2023-04-25T08:07:27;6.35;;;1.00;;
52057;SDS011;38063;53.210;6.504;2023-04-25T08:09:53;2.47;;;0.60;;
52057;SDS011;38063;53.210;6.504;2023-04-25T08:12:19;4.80;;;1.13;;
52057;SDS011;38063;53.210;6.504;2023-04-25T08:14:45;4.75;;;1.05;;
52057;SDS011;38063;53.210;6.504;2023-04-25T08:17:11;2.22;;;0.90;;
52057;SDS011;38063;53.210;6.504;2023-04-25T08:19:37;2.55;;;0.70;;
52057;SDS011;38063;53.210;6.504;2023-04-25T08:22:02;3.25;;;0.75;;
52057;SDS011;38063;53.210;6.504;2023-04-25T08:24:28;1.30;;;0.73;;
52057;SDS011;38063;53.210;6.504;2023-04-25T08:26:54;3.65;;;0.95;;
52057;SDS011;38063;53.210;6.504;2023-04-25T08:29:20;5.32;;;1.15;;
52057;SDS011;38063;53.210;6.504;2023-04-25T08:31:45;4.43;;;0.95;;
52057;SDS011;38063;53.210;6.504;2023-04-25T08:34:13;3.15;;;0.95;;
52057;SDS011;38063;53.210;6.504;2023-04-25T08:36:38;2.65;;;0.88;;
52057;SDS011;38063;53.210;6.504;2023-04-25T08:39:04;3.58;;;0.90;;
52057;SDS011;38063;53.210;6.504;2023-04-25T08:41:29;3.17;;;1.05;;
52057;SDS011;38063;53.210;6.504;2023-04-25T08:43:56;3.97;;;0.93;;
52057;SDS011;38063;53.210;6.504;2023-04-25T08:46:23;6.07;;;1.02;;
52057;SDS011;38063;53.210;6.504;2023-04-25T08:48:50;4.93;;;1.10;;
52057;SDS011;38063;53.210;6.504;2023-04-25T08:51:21;4.07;;;1.10;;
52057;SDS011;38063;53.210;6.504;2023-04-25T08:53:50;9.07;;;1.30;;
52057;SDS011;38063;53.210;6.504;2023-04-25T08:56:17;5.70;;;1.55;;
52057;SDS011;38063;53.210;6.504;2023-04-25T08:58:45;4.47;;;1.15;;
52057;SDS011;38063;53.210;6.504;2023-04-25T09:01:14;11.48;;;1.17;;
52057;SDS011;38063;53.210;6.504;2023-04-25T09:03:40;4.75;;;1.10;;
52057;SDS011;38063;53.210;6.504;2023-04-25T09:06:06;2.85;;;1.10;;
52057;SDS011;38063;53.210;6.504;2023-04-25T09:08:33;3.85;;;1.20;;
52057;SDS011;38063;53.210;6.504;2023-04-25T09:10:59;7.25;;;1.33;;
52057;SDS011;38063;53.210;6.504;2023-04-25T09:13:26;11.48;;;1.42;;
52057;SDS011;38063;53.210;6.504;2023-04-25T09:15:56;9.23;;;1.75;;
52057;SDS011;38063;53.210;6.504;2023-04-25T09:18:23;10.63;;;1.30;;
52057;SDS011;38063;53.210;6.504;2023-04-25T09:20:57;11.05;;;1.52;;
52057;SDS011;38063;53.210;6.504;2023-04-25T09:23:46;6.50;;;1.45;;
52057;SDS011;38063;53.210;6.504;2023-04-25T09:26:13;12.15;;;1.60;;
52057;SDS011;38063;53.210;6.504;2023-04-25T09:28:42;3.35;;;1.17;;
52057;SDS011;38063;53.210;6.504;2023-04-25T09:31:09;7.60;;;1.58;;
52057;SDS011;38063;53.210;6.504;2023-04-25T09:33:36;9.70;;;1.73;;
52057;SDS011;38063;53.210;6.504;2023-04-25T09:38:30;8.85;;;1.98;;
52057;SDS011;38063;53.210;6.504;2023-04-25T09:40:57;8.18;;;1.48;;
52057;SDS011;38063;53.210;6.504;2023-04-25T09:43:24;6.47;;;1.58;;
52057;SDS011;38063;53.210;6.504;2023-04-25T09:45:51;6.03;;;1.30;;
52057;SDS011;38063;53.210;6.504;2023-04-25T09:48:21;4.93;;;1.40;;
52057;SDS011;38063;53.210;6.504;2023-04-25T09:53:39;6.25;;;1.42;;
52057;SDS011;38063;53.210;6.504;2023-04-25T09:56:07;6.35;;;1.40;;
52057;SDS011;38063;53.210;6.504;2023-04-25T09:58:34;7.30;;;1.52;;
52057;SDS011;38063;53.210;6.504;2023-04-25T10:01:01;13.55;;;1.73;;
52057;SDS011;38063;53.210;6.504;2023-04-25T10:03:33;9.48;;;1.50;;
52057;SDS011;38063;53.210;6.504;2023-04-25T10:06:05;8.63;;;1.98;;
52057;SDS011;38063;53.210;6.504;2023-04-25T10:08:34;8.95;;;1.95;;
52057;SDS011;38063;53.210;6.504;2023-04-25T10:11:05;8.40;;;1.58;;
52057;SDS011;38063;53.210;6.504;2023-04-25T10:13:33;8.50;;;1.73;;
52057;SDS011;38063;53.210;6.504;2023-04-25T10:16:02;6.47;;;1.75;;
52057;SDS011;38063;53.210;6.504;2023-04-25T10:18:29;10.15;;;1.77;;
52057;SDS011;38063;53.210;6.504;2023-04-25T10:20:57;9.23;;;1.70;;
52057;SDS011;38063;53.210;6.504;2023-04-25T10:23:24;8.65;;;2.05;;
52057;SDS011;38063;53.210;6.504;2023-04-25T10:25:51;10.43;;;1.52;;
52057;SDS011;38063;53.210;6.504;2023-04-25T10:28:18;6.95;;;1.67;;
52057;SDS011;38063;53.210;6.504;2023-04-25T10:31:00;9.38;;;1.80;;
52057;SDS011;38063;53.210;6.504;2023-04-25T10:33:37;15.68;;;2.15;;
52057;SDS011;38063;53.210;6.504;2023-04-25T10:36:18;9.73;;;1.98;;
52057;SDS011;38063;53.210;6.504;2023-04-25T10:38:46;8.95;;;1.85;;
52057;SDS011;38063;53.210;6.504;2023-04-25T10:41:13;9.07;;;1.98;;
52057;SDS011;38063;53.210;6.504;2023-04-25T10:43:42;9.15;;;1.58;;
52057;SDS011;38063;53.210;6.504;2023-04-25T10:46:28;7.97;;;1.80;;
52057;SDS011;38063;53.210;6.504;2023-04-25T10:48:57;5.82;;;1.30;;
52057;SDS011;38063;53.210;6.504;2023-04-25T10:51:28;8.18;;;1.65;;
52057;SDS011;38063;53.210;6.504;2023-04-25T10:54:01;7.95;;;1.63;;
52057;SDS011;38063;53.210;6.504;2023-04-25T10:56:28;9.07;;;1.80;;
52057;SDS011;38063;53.210;6.504;2023-04-25T10:59:10;8.73;;;1.45;;
52057;SDS011;38063;53.210;6.504;2023-04-25T11:01:47;7.32;;;1.58;;
52057;SDS011;38063;53.210;6.504;2023-04-25T11:04:23;7.13;;;1.45;;
52057;SDS011;38063;53.210;6.504;2023-04-25T11:09:30;4.85;;;1.20;;
52057;SDS011;38063;53.210;6.504;2023-04-25T11:11:58;7.10;;;1.45;;
52057;SDS011;38063;53.210;6.504;2023-04-25T11:14:25;8.52;;;1.20;;
52057;SDS011;38063;53.210;6.504;2023-04-25T11:16:58;5.47;;;1.50;;
52057;SDS011;38063;53.210;6.504;2023-04-25T11:19:25;10.90;;;1.27;;
52057;SDS011;38063;53.210;6.504;2023-04-25T11:21:55;5.85;;;1.33;;
52057;SDS011;38063;53.210;6.504;2023-04-25T11:24:31;3.88;;;0.95;;
52057;SDS011;38063;53.210;6.504;2023-04-25T11:27:00;4.97;;;1.35;;
52057;SDS011;38063;53.210;6.504;2023-04-25T11:29:28;7.55;;;1.30;;
52057;SDS011;38063;53.210;6.504;2023-04-25T11:31:57;13.60;;;1.80;;
52057;SDS011;38063;53.210;6.504;2023-04-25T11:34:24;6.93;;;1.38;;
52057;SDS011;38063;53.210;6.504;2023-04-25T11:36:50;4.38;;;1.20;;
52057;SDS011;38063;53.210;6.504;2023-04-25T11:39:20;6.85;;;1.30;;
52057;SDS011;38063;53.210;6.504;2023-04-25T11:41:46;5.63;;;1.45;;
52057;SDS011;38063;53.210;6.504;2023-04-25T11:44:12;9.10;;;1.65;;
52057;SDS011;38063;53.210;6.504;2023-04-25T11:46:41;7.03;;;1.30;;
52057;SDS011;38063;53.210;6.504;2023-04-25T11:49:07;4.78;;;1.45;;
52057;SDS011;38063;53.210;6.504;2023-04-25T11:51:43;6.35;;;1.52;;
52057;SDS011;38063;53.210;6.504;2023-04-25T11:54:10;7.28;;;1.65;;
52057;SDS011;38063;53.210;6.504;2023-04-25T11:56:37;11.38;;;1.48;;
52057;SDS011;38063;53.210;6.504;2023-04-25T11:59:06;7.93;;;2.08;;
52057;SDS011;38063;53.210;6.504;2023-04-25T12:01:32;5.32;;;1.20;;
52057;SDS011;38063;53.210;6.504;2023-04-25T12:04:09;6.63;;;1.40;;
52057;SDS011;38063;53.210;6.504;2023-04-25T12:06:41;9.75;;;1.38;;
52057;SDS011;38063;53.210;6.504;2023-04-25T12:09:11;4.97;;;1.73;;
52057;SDS011;38063;53.210;6.504;2023-04-25T12:11:45;9.90;;;1.60;;
52057;SDS011;38063;53.210;6.504;2023-04-25T12:14:12;6.00;;;1.67;;
52057;SDS011;38063;53.210;6.504;2023-04-25T12:16:49;10.93;;;1.58;;
52057;SDS011;38063;53.210;6.504;2023-04-25T12:19:20;8.85;;;1.60;;
52057;SDS011;38063;53.210;6.504;2023-04-25T12:21:46;9.80;;;1.67;;
52057;SDS011;38063;53.210;6.504;2023-04-25T12:26:50;8.23;;;1.98;;
52057;SDS011;38063;53.210;6.504;2023-04-25T12:29:24;10.75;;;1.20;;
52057;SDS011;38063;53.210;6.504;2023-04-25T12:31:51;7.30;;;1.83;;
52057;SDS011;38063;53.210;6.504;2023-04-25T12:34:18;11.15;;;1.65;;
52057;SDS011;38063;53.210;6.504;2023-04-25T12:36:45;6.50;;;1.30;;
52057;SDS011;38063;53.210;6.504;2023-04-25T12:39:17;7.97;;;1.40;;
52057;SDS011;38063;53.210;6.504;2023-04-25T12:41:45;7.60;;;1.55;;
52057;SDS011;38063;53.210;6.504;2023-04-25T12:44:11;10.07;;;1.23;;
52057;SDS011;38063;53.210;6.504;2023-04-25T12:46:37;5.65;;;1.23;;
52057;SDS011;38063;53.210;6.504;2023-04-25T12:49:03;4.95;;;1.65;;
52057;SDS011;38063;53.210;6.504;2023-04-25T12:51:31;6.95;;;1.85;;
52057;SDS011;38063;53.210;6.504;2023-04-25T12:53:58;6.60;;;1.13;;
52057;SDS011;38063;53.210;6.504;2023-04-25T12:56:25;5.60;;;1.15;;
52057;SDS011;38063;53.210;6.504;2023-04-25T12:58:51;13.20;;;1.80;;
52057;SDS011;38063;53.210;6.504;2023-04-25T13:01:17;5.22;;;1.30;;
52057;SDS011;38063;53.210;6.504;2023-04-25T13:03:43;10.23;;;1.67;;
52057;SDS011;38063;53.210;6.504;2023-04-25T13:06:08;8.48;;;1.85;;
52057;SDS011;38063;53.210;6.504;2023-04-25T13:08:34;7.03;;;1.70;;
52057;SDS011;38063;53.210;6.504;2023-04-25T13:11:01;8.80;;;1.52;;
52057;SDS011;38063;53.210;6.504;2023-04-25T13:13:28;12.65;;;1.73;;
52057;SDS011;38063;53.210;6.504;2023-04-25T13:15:54;6.35;;;1.17;;
52057;SDS011;38063;53.210;6.504;2023-04-25T13:18:20;7.65;;;1.67;;
52057;SDS011;38063;53.210;6.504;2023-04-25T13:20:46;9.68;;;1.70;;
52057;SDS011;38063;53.210;6.504;2023-04-25T13:23:11;6.78;;;1.63;;
52057;SDS011;38063;53.210;6.504;2023-04-25T13:25:37;6.45;;;1.63;;
52057;SDS011;38063;53.210;6.504;2023-04-25T13:28:03;11.68;;;1.75;;
52057;SDS011;38063;53.210;6.504;2023-04-25T13:30:29;12.00;;;1.83;;
52057;SDS011;38063;53.210;6.504;2023-04-25T13:32:55;10.52;;;1.70;;
52057;SDS011;38063;53.210;6.504;2023-04-25T13:35:22;9.55;;;1.55;;
52057;SDS011;38063;53.210;6.504;2023-04-25T13:37:48;8.43;;;1.35;;
52057;SDS011;38063;53.210;6.504;2023-04-25T13:40:13;7.35;;;1.73;;
52057;SDS011;38063;53.210;6.504;2023-04-25T13:42:39;14.05;;;1.30;;
52057;SDS011;38063;53.210;6.504;2023-04-25T13:45:05;7.28;;;1.08;;
52057;SDS011;38063;53.210;6.504;2023-04-25T13:47:32;5.70;;;1.30;;
52057;SDS011;38063;53.210;6.504;2023-04-25T13:49:57;7.45;;;1.27;;
52057;SDS011;38063;53.210;6.504;2023-04-25T13:52:24;6.57;;;1.10;;
52057;SDS011;38063;53.210;6.504;2023-04-25T13:54:50;7.43;;;1.20;;
52057;SDS011;38063;53.210;6.504;2023-04-25T13:57:16;5.40;;;1.48;;
52057;SDS011;38063;53.210;6.504;2023-04-25T13:59:42;5.72;;;1.30;;
52057;SDS011;38063;53.210;6.504;2023-04-25T14:02:08;9.93;;;1.85;;
52057;SDS011;38063;53.210;6.504;2023-04-25T14:04:34;8.32;;;1.85;;
52057;SDS011;38063;53.210;6.504;2023-04-25T14:07:00;6.38;;;1.40;;
52057;SDS011;38063;53.210;6.504;2023-04-25T14:09:27;5.88;;;1.38;;
52057;SDS011;38063;53.210;6.504;2023-04-25T14:11:53;10.25;;;1.88;;
52057;SDS011;38063;53.210;6.504;2023-04-25T14:14:20;7.30;;;1.75;;
52057;SDS011;38063;53.210;6.504;2023-04-25T14:16:47;7.82;;;1.65;;
52057;SDS011;38063;53.210;6.504;2023-04-25T14:19:20;4.63;;;1.55;;
52057;SDS011;38063;53.210;6.504;2023-04-25T14:21:45;8.75;;;1.48;;
52057;SDS011;38063;53.210;6.504;2023-04-25T14:24:13;6.50;;;2.30;;
52057;SDS011;38063;53.210;6.504;2023-04-25T14:26:39;8.60;;;1.52;;
52057;SDS011;38063;53.210;6.504;2023-04-25T14:29:06;7.75;;;1.23;;
52057;SDS011;38063;53.210;6.504;2023-04-25T14:31:32;6.65;;;1.50;;
52057;SDS011;38063;53.210;6.504;2023-04-25T14:33:58;6.32;;;1.48;;
52057;SDS011;38063;53.210;6.504;2023-04-25T14:36:24;6.40;;;1.70;;
52057;SDS011;38063;53.210;6.504;2023-04-25T14:38:51;7.25;;;1.27;;
52057;SDS011;38063;53.210;6.504;2023-04-25T14:41:17;9.93;;;2.20;;
52057;SDS011;38063;53.210;6.504;2023-04-25T14:43:43;8.00;;;1.50;;
52057;SDS011;38063;53.210;6.504;2023-04-25T14:46:10;6.07;;;1.70;;
52057;SDS011;38063;53.210;6.504;2023-04-25T14:48:36;10.02;;;1.63;;
52057;SDS011;38063;53.210;6.504;2023-04-25T14:51:01;9.85;;;1.55;;